Data for 09/30/2007

Time Sea-Level Adjusted Pressure Absolute Pressure Temperature Relative Humidity Dew Point   
(mb) (inHg) (mb) (inHg) (C) (F) (%) (C) (F)
00:05 1019 30.09 848 25.04 4.6 40.2 82 1.8 35.3
00:10 1019 30.09 848 25.04 4.6 40.2 82 1.8 35.3
00:15 1019 30.09 848 25.04 4.5 40.1 83 1.8 35.3
00:20 1019 30.09 848 25.04 4.4 39.8 83 1.7 35
00:25 1019 30.09 848 25.04 4.3 39.7 83 1.6 34.8
00:30 1019 30.09 848 25.04 4.3 39.7 81 1.3 34.4
00:35 1019 30.09 848 25.04 4.3 39.8 81 1.4 34.5
00:40 1019 30.09 848 25.04 4.4 39.9 81 1.4 34.5
00:45 1019 30.09 849 25.07 4.4 40 81 1.4 34.5
00:50 1019 30.09 849 25.07 4.4 39.9 82 1.6 34.8
00:55 1019 30.09 849 25.07 4.4 39.9 82 1.6 34.8
01:00 1019 30.09 849 25.07 4.4 39.9 81 1.3 34.4
01:05 1019 30.09 849 25.07 4.4 39.9 81 1.4 34.5
01:10 1019 30.09 849 25.07 4.4 39.9 82 1.5 34.7
01:15 1019 30.09 849 25.07 4.2 39.5 83 1.6 34.9
01:20 1020 30.12 849 25.07 4 39.2 83 1.4 34.5
01:25 1020 30.12 849 25.07 4 39.2 82 1.2 34.2
01:30 1020 30.12 849 25.07 4.2 39.5 81 1.2 34.1
01:35 1020 30.12 849 25.07 4.3 39.7 80 1.1 34
01:40 1020 30.12 849 25.07 4.4 39.9 79 1.1 34
01:45 1020 30.12 849 25.07 4.5 40 76 0.7 33.2
01:50 1020 30.12 849 25.07 4.5 40.2 78 1 33.8
01:55 1020 30.12 849 25.07 4.5 40.1 77 0.9 33.6
02:00 1020 30.12 849 25.07 4.3 39.8 78 0.9 33.6
02:05 1020 30.12 849 25.07 4.2 39.6 79 0.9 33.6
02:10 1020 30.12 849 25.07 4 39.2 80 0.8 33.5
02:15 1020 30.12 849 25.07 3.6 38.5 81 0.6 33.1
02:20 1020 30.12 849 25.07 3.5 38.2 81 0.5 32.9
02:25 1020 30.12 849 25.07 3.5 38.3 81 0.5 32.9
02:30 1020 30.12 849 25.07 3.5 38.3 81 0.6 33
02:35 1020 30.12 850 25.1 3.3 38 83 0.7 33.2
02:40 1020 30.12 850 25.1 2.9 37.2 84 0.4 32.7
02:45 1020 30.12 850 25.1 2.7 36.9 83 0.2 32.4
02:50 1021 30.15 850 25.1 2.4 36.4 84 0.1 32.1
02:55 1021 30.15 850 25.1 2.1 35.7 84 -0.3 31.4
03:00 1021 30.15 850 25.1 2.2 36 84 -0.2 31.7
03:05 1021 30.15 850 25.1 2.1 35.8 84 -0.3 31.4
03:10 1021 30.15 850 25.1 2.1 35.9 84 -0.3 31.4
03:15 1021 30.15 850 25.1 2.2 36 84 -0.3 31.5
03:20 1021 30.15 850 25.1 2.2 36 83 -0.3 31.4
03:25 1021 30.15 850 25.1 2.1 35.7 84 -0.3 31.4
03:30 1021 30.15 850 25.1 1.9 35.4 84 -0.5 31.2
03:35 1021 30.15 850 25.1 2.1 35.8 83 -0.5 31.1
03:40 1021 30.15 850 25.1 2.2 35.9 83 -0.5 31.2
03:45 1021 30.15 850 25.1 2.3 36.1 82 -0.6 30.9
03:50 1021 30.15 850 25.1 2 35.6 84 -0.5 31.1
03:55 1021 30.15 850 25.1 1.6 34.8 87 -0.4 31.2
04:00 1021 30.15 850 25.1 1.2 34.2 87 -0.7 30.8
04:05 1021 30.15 850 25.1 1.1 34 88 -0.7 30.8
04:10 1021 30.15 850 25.1 0.9 33.6 88 -0.8 30.6
04:15 1021 30.15 850 25.1 0.9 33.6 89 -0.8 30.6
04:20 1021 30.15 850 25.1 0.9 33.6 89 -0.7 30.7
04:25 1021 30.15 850 25.1 0.9 33.6 89 -0.7 30.7
04:30 1021 30.15 850 25.1 0.9 33.6 89 -0.7 30.7
04:35 1021 30.15 850 25.1 1 33.7 88 -0.8 30.6
04:40 1021 30.15 850 25.1 1 33.8 88 -0.8 30.5
04:45 1021 30.15 850 25.1 1 33.7 89 -0.7 30.7
04:50 1021 30.15 850 25.1 0.8 33.4 89 -0.8 30.5
04:55 1021 30.15 850 25.1 0.9 33.7 88 -0.8 30.6
05:00 1021 30.15 850 25.1 0.9 33.6 88 -0.8 30.5
05:05 1021 30.15 850 25.1 1 33.8 89 -0.6 30.8
05:10 1021 30.15 850 25.1 0.9 33.6 89 -0.7 30.8
05:15 1021 30.15 850 25.1 0.8 33.4 90 -0.7 30.8
05:20 1021 30.15 850 25.1 0.9 33.6 89 -0.8 30.6
05:25 1021 30.15 850 25.1 0.7 33.3 90 -0.7 30.7
05:30 1021 30.15 850 25.1 0.5 33 91 -0.8 30.5
05:35 1021 30.15 850 25.1 0.6 33.1 90 -0.8 30.5
05:40 1021 30.15 850 25.1 0.7 33.3 90 -0.8 30.6
05:45 1021 30.15 850 25.1 0.7 33.2 90 -0.8 30.5
05:50 1021 30.15 850 25.1 0.6 33.1 90 -0.9 30.3
05:55 1021 30.15 850 25.1 0.6 33 91 -0.8 30.6
06:00 1021 30.15 850 25.1 0.4 32.7 91 -0.8 30.5
06:05 1021 30.15 850 25.1 0.3 32.6 91 -0.9 30.4
06:10 1021 30.15 850 25.1 0.4 32.7 91 -1 30.2
06:15 1021 30.15 850 25.1 0.3 32.6 91 -1 30.3
06:20 1021 30.15 850 25.1 0.2 32.4 90 -1.2 29.9
06:25 1021 30.15 850 25.1 0.1 32.2 92 -1.1 30.1
06:30 1021 30.15 850 25.1 0 32 92 -1.2 29.9
06:35 1021 30.15 850 25.1 0 32 92 -1.2 29.8
06:40 1021 30.15 850 25.1 0.1 32.1 91 -1.3 29.7
06:45 1021 30.15 850 25.1 0.1 32.2 90 -1.3 29.7
06:50 1021 30.15 850 25.1 0.1 32.2 90 -1.3 29.7
06:55 1021 30.15 850 25.1 0.1 32.2 91 -1.2 29.8
07:00 1021 30.15 850 25.1 0.1 32.2 90 -1.3 29.6
07:05 1021 30.15 850 25.1 0.1 32.2 90 -1.3 29.6
07:10 1021 30.15 850 25.1 0 32 91 -1.3 29.7
07:15 1021 30.15 850 25.1 -0.1 31.8 91 -1.4 29.5
07:20 1021 30.15 850 25.1 -0.1 31.8 91 -1.4 29.4
07:25 1021 30.15 850 25.1 -0.3 31.5 92 -1.4 29.5
07:30 1021 30.15 850 25.1 -0.4 31.2 92 -1.5 29.2
07:35 1021 30.15 850 25.1 -0.4 31.3 92 -1.6 29.2
07:40 1021 30.15 850 25.1 -0.2 31.6 90 -1.7 29
07:45 1021 30.15 850 25.1 -0.1 31.9 89 -1.7 28.9
07:50 1021 30.15 850 25.1 -0.1 31.8 90 -1.6 29.1
07:55 1021 30.15 850 25.1 -0 31.9 89 -1.6 29
08:00 1021 30.15 850 25.1 0.1 32.2 88 -1.6 29.1
08:05 1021 30.15 850 25.1 0.1 32.2 88 -1.7 28.9
08:10 1021 30.15 850 25.1 0.2 32.4 87 -1.7 28.9
08:15 1021 30.15 850 25.1 0.6 33.1 86 -1.5 29.2
08:20 1021 30.15 850 25.1 0.9 33.6 84 -1.5 29.3
08:25 1021 30.15 850 25.1 1 33.8 84 -1.4 29.6
08:30 1021 30.15 850 25.1 1.2 34.1 84 -1.3 29.7
08:35 1021 30.15 850 25.1 1.3 34.3 84 -1.1 30
08:40 1021 30.15 850 25.1 1.4 34.5 83 -1.1 30
08:45 1021 30.15 850 25.1 1.9 35.5 80 -1.2 29.8
08:50 1021 30.15 850 25.1 2.5 36.5 78 -1 30.3
08:55 1021 30.15 850 25.1 2.7 36.8 80 -0.5 31.2
09:00 1021 30.15 850 25.1 2.7 36.9 79 -0.6 30.9
09:05 1021 30.15 850 25.1 2.8 37.1 80 -0.3 31.4
09:10 1021 30.15 850 25.1 3 37.3 78 -0.5 31
09:15 1021 30.15 850 25.1 3.4 38 78 -0.1 31.9
09:20 1021 30.15 850 25.1 3.7 38.7 76 -0.2 31.7
09:25 1021 30.15 850 25.1 4 39.1 75 -0.1 31.8
09:30 1021 30.15 850 25.1 4.3 39.7 74 0 32.1
09:35 1021 30.15 850 25.1 4.7 40.4 72 -0 31.9
09:40 1021 30.15 850 25.1 4.9 40.8 70 -0.2 31.6
09:45 1021 30.15 850 25.1 5 40.9 71 0.1 32.1
09:50 1020 30.12 850 25.1 5.3 41.6 70 0.3 32.5
09:55 1020 30.12 850 25.1 5.9 42.5 67 0.2 32.4
10:00 1020 30.12 850 25.1 6.1 42.9 66 0.2 32.4
10:05 1020 30.12 850 25.1 6.4 43.5 66 0.5 32.8
10:10 1020 30.12 849 25.07 6.8 44.2 68 1.2 34.2
10:15 1020 30.12 849 25.07 7.4 45.2 64 1.1 34
10:20 1020 30.12 849 25.07 7.8 46.1 53 -1.1 30.1
10:25 1020 30.12 849 25.07 7.9 46.2 57 -0.1 31.9
10:30 1020 30.12 849 25.07 7.7 45.9 59 0.3 32.5
10:35 1020 30.12 849 25.07 8 46.5 55 -0.5 31
10:40 1020 30.12 849 25.07 8.3 46.9 55 -0.2 31.6
10:45 1020 30.12 849 25.07 8.8 47.9 47 -1.7 28.9
10:50 1020 30.12 849 25.07 9 48.2 53 0.1 32.1
10:55 1020 30.12 849 25.07 8.7 47.7 48 -1.6 29.1
11:00 1020 30.12 849 25.07 8.7 47.6 47 -1.9 28.5
11:05 1020 30.12 849 25.07 9.4 48.9 47 -1.3 29.7
11:10 1020 30.12 849 25.07 9.5 49 47 -1.4 29.5
11:15 1020 30.12 849 25.07 9.6 49.3 46 -1.5 29.3
11:20 1020 30.12 849 25.07 9.4 48.9 46 -1.8 28.8
11:25 1020 30.12 849 25.07 9.7 49.5 45 -1.5 29.3
11:30 1020 30.12 849 25.07 10.5 50.8 41 -2.3 27.9
11:35 1020 30.12 849 25.07 10.9 51.5 40 -2.3 27.8
11:40 1020 30.12 849 25.07 11.8 53.2 36 -2.8 27
11:45 1020 30.12 849 25.07 11.8 53.2 41 -1.1 30.1
11:50 1020 30.12 849 25.07 11.5 52.6 39 -1.9 28.5
11:55 1020 30.12 849 25.07 11.8 53.3 37 -2.2 28.1
12:00 1020 30.12 849 25.07 12.1 53.8 39 -1.3 29.6
12:05 1020 30.12 849 25.07 12.6 54.7 40 -0.7 30.7
12:10 1020 30.12 849 25.07 12.9 55.2 38 -1 30.3
12:15 1020 30.12 849 25.07 12.8 55.1 39 -0.8 30.5
12:20 1020 30.12 849 25.07 12.6 54.6 40 -0.7 30.7
12:25 1020 30.12 849 25.07 12.1 53.8 37 -2.2 28.1
12:30 1020 30.12 849 25.07 12.7 54.8 36 -2 28.5
12:35 1020 30.12 849 25.07 12.9 55.2 37 -1.5 29.3
12:40 1020 30.12 849 25.07 13 55.3 34 -2.3 27.8
12:45 1020 30.12 849 25.07 13.4 56.2 35 -1.7 28.9
12:50 1020 30.12 849 25.07 13 55.4 38 -0.8 30.5
12:55 1020 30.12 849 25.07 12.6 54.7 37 -1.7 28.9
13:00 1020 30.12 849 25.07 13.3 56 34 -2.1 28.3
13:05 1020 30.12 849 25.07 13.7 56.7 33 -2.2 28
13:10 1020 30.12 849 25.07 14 57.2 37 -0.2 31.6
13:15 1020 30.12 849 25.07 13.4 56.1 35 -1.7 28.9
13:20 1020 30.12 849 25.07 13.3 55.9 37 -0.9 30.3
13:25 1020 30.12 849 25.07 12.6 54.8 38 -1.2 29.9
13:30 1020 30.12 849 25.07 13 55.4 37 -1.4 29.5
13:35 1019 30.09 849 25.07 14.1 57.3 34 -1.5 29.3
13:40 1019 30.09 849 25.07 14.2 57.6 34 -1.5 29.3
13:45 1019 30.09 849 25.07 15.5 60 32 -1.2 29.9
13:50 1019 30.09 848 25.04 15.1 59.3 33 -1.1 30
13:55 1019 30.09 848 25.04 15.7 60.2 32 -0.9 30.4
14:00 1019 30.09 848 25.04 15.6 60 32 -1.1 29.9
14:05 1019 30.09 848 25.04 14.8 58.6 33 -1.3 29.7
14:10 1019 30.09 848 25.04 14.7 58.5 33 -1.4 29.6
14:15 1019 30.09 848 25.04 14.9 58.9 32 -1.3 29.6
14:20 1019 30.09 848 25.04 14.9 58.7 34 -0.9 30.4
14:25 1019 30.09 848 25.04 14.2 57.5 36 -0.8 30.6
14:30 1019 30.09 848 25.04 14.1 57.5 35 -1.1 30.1
14:35 1019 30.09 848 25.04 15 59 32 -1.3 29.6
14:40 1019 30.09 848 25.04 16.2 61.1 31 -1.1 30
14:45 1019 30.09 848 25.04 16.2 61.1 31 -1 30.1
14:50 1019 30.09 848 25.04 15.9 60.7 32 -0.5 31
14:55 1019 30.09 848 25.04 15.7 60.2 33 -0.4 31.2
15:00 1019 30.09 848 25.04 14.8 58.6 34 -0.7 30.8
15:05 1019 30.09 848 25.04 14.5 58.1 34 -1.2 29.8
15:10 1019 30.09 848 25.04 15.7 60.3 30 -1.5 29.3
15:15 1019 30.09 848 25.04 16 60.8 32 -0.5 31.1
15:20 1019 30.09 848 25.04 15.4 59.7 33 -0.8 30.6
15:25 1019 30.09 848 25.04 16 60.7 33 -0.4 31.3
15:30 1018 30.06 848 25.04 15.1 59.1 34 -0.7 30.8
15:35 1018 30.06 848 25.04 15.5 60 32 -0.9 30.3
15:40 1018 30.06 848 25.04 16.1 60.9 33 -0.3 31.5
15:45 1018 30.06 848 25.04 16.6 61.9 30 -0.9 30.4
15:50 1018 30.06 848 25.04 17.1 62.9 29 -1.1 30
15:55 1018 30.06 848 25.04 17 62.5 30 -0.5 31.2
16:00 1018 30.06 848 25.04 16.4 61.6 31 -0.6 31
16:05 1018 30.06 847 25.01 16.2 61.1 31 -1 30.2
16:10 1018 30.06 847 25.01 16.7 62 30 -0.8 30.5
16:15 1018 30.06 847 25.01 17 62.5 30 -0.5 31.1
16:20 1018 30.06 847 25.01 16.9 62.3 31 -0.4 31.3
16:25 1018 30.06 847 25.01 17.2 62.9 30 -0.3 31.4
16:30 1018 30.06 847 25.01 16.7 62.1 32 0.2 32.4
16:35 1018 30.06 847 25.01 16.9 62.4 30 -0.6 31
16:40 1018 30.06 847 25.01 17 62.7 30 -0.6 31
16:45 1018 30.06 847 25.01 16.5 61.7 32 -0 32
16:50 1018 30.06 847 25.01 16.1 61 31 -0.7 30.7
16:55 1018 30.06 847 25.01 16.3 61.4 31 -0.7 30.8
17:00 1018 30.06 847 25.01 16.4 61.4 31 -0.9 30.4
17:05 1018 30.06 847 25.01 15.9 60.6 32 -0.6 31
17:10 1018 30.06 847 25.01 15.3 59.5 33 -0.7 30.7
17:15 1018 30.06 847 25.01 15.8 60.5 31 -1.1 30
17:20 1018 30.06 847 25.01 16.3 61.4 31 -0.6 31
17:25 1018 30.06 847 25.01 16.6 61.8 31 -0.4 31.3
17:30 1018 30.06 847 25.01 16.1 61 32 -0.4 31.3
17:35 1018 30.06 847 25.01 15.9 60.5 33 -0.4 31.4
17:40 1018 30.06 847 25.01 15.8 60.4 33 -0.3 31.5
17:45 1018 30.06 847 25.01 15.3 59.5 34 -0.4 31.3
17:50 1018 30.06 847 25.01 15.3 59.6 34 -0.2 31.6
17:55 1018 30.06 847 25.01 15.5 59.9 34 -0.3 31.5
18:00 1017 30.03 847 25.01 15.6 60.1 33 -0.3 31.4
18:05 1017 30.03 847 25.01 15.3 59.6 35 0.2 32.3
18:10 1017 30.03 846 24.98 14.8 58.6 38 0.9 33.5
18:15 1017 30.03 846 24.98 14.6 58.3 36 -0.4 31.3
18:20 1017 30.03 846 24.98 14.7 58.4 36 -0.1 31.8
18:25 1017 30.03 846 24.98 14.6 58.3 38 0.4 32.7
18:30 1017 30.03 846 24.98 14.1 57.4 40 0.9 33.5
18:35 1017 30.03 846 24.98 13.6 56.5 41 0.8 33.4
18:40 1017 30.03 846 24.98 13.3 56 41 0.5 32.9
18:45 1017 30.03 846 24.98 13.2 55.8 41 0.3 32.5
18:50 1017 30.03 846 24.98 13.2 55.7 41 0.4 32.8
18:55 1017 30.03 846 24.98 13.1 55.6 44 1.1 34
19:00 1017 30.03 846 24.98 13.1 55.7 43 0.9 33.6
19:05 1017 30.03 846 24.98 13 55.4 41 0.2 32.4
19:10 1017 30.03 846 24.98 13 55.4 51 3.1 37.6
19:15 1017 30.03 846 24.98 12.4 54.2 52 2.8 37.1
19:20 1017 30.03 846 24.98 12.1 53.8 52 2.6 36.7
19:25 1017 30.03 846 24.98 12.2 54 49 1.8 35.3
19:30 1017 30.03 846 24.98 12.1 53.8 51 2.3 36.1
19:35 1017 30.03 846 24.98 11.8 53.3 56 3.5 38.3
19:40 1017 30.03 846 24.98 11.2 52.1 60 3.8 38.8
19:45 1017 30.03 846 24.98 10.5 50.9 58 2.6 36.7
19:50 1017 30.03 846 24.98 10.4 50.7 59 2.7 36.8
19:55 1017 30.03 846 24.98 10.4 50.6 53 1.2 34.1
20:00 1016 30 846 24.98 10.7 51.3 52 1.4 34.5
20:05 1016 30 846 24.98 10.8 51.5 57 2.7 36.8
20:10 1016 30 846 24.98 10.1 50.1 62 3.2 37.7
20:15 1016 30 846 24.98 9.3 48.7 61 2.3 36.1
20:20 1016 30 846 24.98 9.3 48.8 59 1.7 35.1
20:25 1016 30 846 24.98 9.4 49 58 1.7 35.1
20:30 1016 30 846 24.98 9.5 49.1 55 1 33.8
20:35 1016 30 845 24.95 9.8 49.6 54 0.9 33.7
20:40 1016 30 845 24.95 9.9 49.8 53 0.8 33.5
20:45 1016 30 845 24.95 10.1 50.2 51 0.5 32.9
20:50 1016 30 845 24.95 10.3 50.5 51 0.6 33
20:55 1016 30 845 24.95 10.3 50.5 45 -1 30.2
21:00 1016 30 845 24.95 10.6 51 47 -0.3 31.5
21:05 1016 30 845 24.95 10.2 50.4 47 -0.5 31.1
21:10 1016 30 845 24.95 10.1 50.2 45 -1.1 30
21:15 1016 30 845 24.95 10.4 50.7 41 -2.2 28
21:20 1016 30 845 24.95 10.6 51.1 39 -2.9 26.9
21:25 1016 30 845 24.95 10.6 51.1 41 -2 28.4
21:30 1016 30 845 24.95 10.5 50.9 44 -1.1 30
21:35 1016 30 845 24.95 10.5 50.8 41 -2.3 27.8
21:40 1016 30 845 24.95 10.4 50.7 39 -2.9 26.7
21:45 1016 30 846 24.98 10.5 50.8 37 -3.6 25.6
21:50 1016 30 846 24.98 10.4 50.7 38 -3.4 25.9
21:55 1016 30 846 24.98 10.3 50.5 35 -4.4 24.1
22:00 1016 30 846 24.98 10.4 50.8 35 -4.2 24.4
22:05 1016 30 846 24.98 10.5 50.9 34 -4.6 23.8
22:10 1016 30 845 24.95 10.7 51.2 34 -4.5 23.9
22:15 1016 30 845 24.95 10.6 51.1 35 -4.2 24.4
22:20 1016 30 845 24.95 10.6 51.1 34 -4.4 24.1
22:25 1016 30 845 24.95 10.6 51 41 -2.2 28.1
22:30 1016 30 845 24.95 9.5 49.2 44 -2.1 28.3
22:35 1016 30 845 24.95 9.4 48.8 40 -3.5 25.7
22:40 1016 30 845 24.95 9.8 49.6 39 -3.4 25.9
22:45 1016 30 845 24.95 10 50 40 -3.1 26.4
22:50 1016 30 845 24.95 10.1 50.2 44 -1.4 29.4
22:55 1016 30 845 24.95 9.5 49.1 45 -2 28.5
23:00 1016 30 845 24.95 9.1 48.3 46 -2 28.5
23:05 1016 30 845 24.95 8.8 47.9 46 -2 28.4
23:10 1016 30 845 24.95 9 48.1 43 -3 26.7
23:15 1016 30 845 24.95 9.1 48.4 39 -4.2 24.4
23:20 1016 30 845 24.95 9.4 49 36 -4.9 23.1
23:25 1016 30 845 24.95 10 50.1 36 -4.5 24
23:30 1016 30 845 24.95 10.2 50.4 37 -3.9 25
23:35 1016 30 845 24.95 10.2 50.4 35 -4.6 23.7
23:40 1016 30 845 24.95 10.2 50.4 36 -4.3 24.3
23:45 1016 30 845 24.95 10 49.9 37 -4.2 24.5
23:50 1016 30 845 24.95 9.9 49.7 35 -4.7 23.5
23:55 1016 30 845 24.95 9.8 49.7 38 -3.8 25.1
24:00 1016 30 845 24.95 9.6 49.4 38 -3.9 25